Greenfield, MO (65661)

7:19 AM CDT on August 31, 2015 (GMT -0500)
Greenfield West (WOHSN) | | Change Station
CLOSE
Current Station
Personal Weather Station
Location: Greenfield, MO
Elevation: 1066 ft
Nearby Weather Stations

Elev 1066 ft 37.42 °N, 93.85 °W | Updated 4 minutes ago

Clear
Clear
70.0 °F
Feels Like 70.0 °F
N
3.2
Wind Variable Wind from ESE

Today
High -- | Low -- °F
--% Chance of Precip.
Yesterday
High -- | Low -- °F
Precip. -- in
6:44 AM 7:46 PM
Waning Gibbous, 95% visible
Pressure 30.00 in
Visibility 8.0 miles
Clouds Mostly Cloudy 7000 ft
Dew Point 70 °F
Humidity 99%
Rainfall 0.00 in
Snow Depth Not available.
UV 0 out of 12
Pollen 10.60 out of 12
Air Quality Not available.
Flu Activity Not available.
METAR KSGF 311152Z 15009KT 8SM BKN070 22/19 A3004 RMK AO2 SLP159 T02170194 10239 20217 53011
Pressure 30.00 in
Visibility 8.0 miles
Clouds Mostly Cloudy 7000 ft
Dew Point 70 °F
Humidity 99%
Rainfall 0.00 in
Snow Depth Not available.
UV 0 out of 12
Pollen 10.60 out of 12
Air Quality Not available.
Flu Activity Not available.
METAR KSGF 311152Z 15009KT 8SM BKN070 22/19 A3004 RMK AO2 SLP159 T02170194 10239 20217 53011

10-Day Weather Forecast

×

Almanac

Astronomy

Aug. 31, 2015 Rise Set
Actual Time
Civil Twilight
Nautical Twilight
Astronomical Twilight
Moon
Length of Visible Light
Length of Day
Tomorrow will be .
, % of the Moon is Illuminated

Today's Extremes

State Highs State Lows

Community

WunderPhotos

Upload Photos

1,851,222 photos uploaded!

WunderBlogs® & News

Nearby

Air Quality

  Air Quality AQ Index Pollutant
Not available.

Snow Depth

Station Depth Elevation

Earthquake Activity

City Distance Mag. Time & Date
Minimum magnitude displayed is 2.5.

Coastal Water Temperatures

Place Temperature

Stations

Nearby Weather Stations

Station Location Temp. Windchill Dew Point Humidity Wind Precip. Elev Updated Type